Terminal Aerodrome Forecast
Issued by NWS Bismarck, ND

Home | Current Version | Previous Version | Graphics & Text | Print | Product List | Glossary On
Versions: 1 2 3 4 5 6 7 8 9 10 11 12 13 14 15 16
000
FTUS43 KBIS 230520
TAFISN
TAF
KISN 230520Z 2306/2406 09011KT P6SM VCSH BKN015
     FM231000 08007KT P6SM OVC015
     FM231300 09012G20KT P6SM OVC010
     FM231900 10015G23KT P6SM OVC020=

USA.gov is the U.S. government's official web portal to all federal, state and local government web resources and services.